createdAt,value
2019-03-26T00:00:20.119Z,1016.03
2019-03-26T00:01:20.111Z,1016.02
2019-03-26T00:02:20.099Z,1016.03
2019-03-26T00:03:20.089Z,1016.04
2019-03-26T00:04:20.089Z,1016.06
2019-03-26T00:05:20.386Z,1016.10
2019-03-26T00:06:20.068Z,1016.10
2019-03-26T00:07:20.328Z,1016.17
2019-03-26T00:08:20.988Z,1016.11
2019-03-26T00:09:20.038Z,1016.13
2019-03-26T00:10:20.018Z,1016.19
2019-03-26T00:11:20.051Z,1016.25
2019-03-26T00:12:19.997Z,1016.18
2019-03-26T00:13:19.990Z,1016.27
2019-03-26T00:14:20.757Z,1016.31
2019-03-26T00:15:19.968Z,1016.27
2019-03-26T00:16:19.960Z,1016.26
2019-03-26T00:17:19.997Z,1016.26
2019-03-26T00:18:19.951Z,1016.31
2019-03-26T00:19:19.929Z,1016.25
2019-03-26T00:20:19.916Z,1016.27
2019-03-26T00:21:20.345Z,1016.31
2019-03-26T00:22:19.906Z,1016.28
2019-03-26T00:23:19.953Z,1016.31
2019-03-26T00:24:20.509Z,1016.29
2019-03-26T00:25:19.865Z,1016.27
2019-03-26T00:26:20.512Z,1016.29
2019-03-26T00:27:20.505Z,1016.31
2019-03-26T00:28:20.116Z,1016.23
2019-03-26T00:29:19.874Z,1016.29
2019-03-26T00:30:19.823Z,1016.33
2019-03-26T00:31:19.804Z,1016.31
2019-03-26T00:32:19.795Z,1016.27
2019-03-26T00:33:19.792Z,1016.29
2019-03-26T00:34:19.942Z,1016.26
2019-03-26T00:35:20.085Z,1016.26
2019-03-26T00:36:19.808Z,1016.28
2019-03-26T00:37:19.744Z,1016.28
2019-03-26T00:38:19.755Z,1016.31
2019-03-26T00:39:19.724Z,1016.35
2019-03-26T00:40:19.747Z,1016.35
2019-03-26T00:41:19.763Z,1016.35
2019-03-26T00:42:19.974Z,1016.31
2019-03-26T00:43:19.683Z,1016.36
2019-03-26T00:44:19.678Z,1016.26
2019-03-26T00:45:19.703Z,1016.31
2019-03-26T00:46:19.652Z,1016.26
2019-03-26T00:47:19.683Z,1016.30
2019-03-26T00:48:19.630Z,1016.34
2019-03-26T00:49:19.914Z,1016.34
2019-03-26T00:50:19.661Z,1016.36
2019-03-26T00:51:19.599Z,1016.37
2019-03-26T00:52:19.591Z,1016.39
2019-03-26T00:53:19.618Z,1016.43
2019-03-26T00:54:19.569Z,1016.38
2019-03-26T00:55:22.821Z,1016.40
2019-03-26T00:56:19.839Z,1016.40
2019-03-26T00:57:19.539Z,1016.45
2019-03-26T00:58:19.531Z,1016.53
2019-03-26T00:59:19.580Z,1016.48
2019-03-26T01:00:19.510Z,1016.53
2019-03-26T01:01:19.500Z,1016.52
2019-03-26T01:02:19.489Z,1016.51
2019-03-26T01:03:19.751Z,1016.53
2019-03-26T01:04:31.839Z,1016.56
2019-03-26T01:05:20.500Z,1016.60
2019-03-26T01:06:19.448Z,1016.53
2019-03-26T01:07:19.440Z,1016.59
2019-03-26T01:08:19.429Z,1016.59
2019-03-26T01:09:19.419Z,1016.60
2019-03-26T01:10:19.709Z,1016.63
2019-03-26T01:11:19.439Z,1016.62
2019-03-26T01:12:19.379Z,1016.66
2019-03-26T01:13:19.383Z,1016.68
2019-03-26T01:14:19.372Z,1016.64
2019-03-26T01:15:19.366Z,1016.64
2019-03-26T01:16:19.340Z,1016.66
2019-03-26T01:17:19.859Z,1016.64
2019-03-26T01:18:19.335Z,1016.62
2019-03-26T01:19:19.329Z,1016.63
2019-03-26T01:20:19.308Z,1016.61
2019-03-26T01:21:19.288Z,1016.58
2019-03-26T01:22:19.280Z,1016.59
2019-03-26T01:23:19.396Z,1016.59
2019-03-26T01:24:20.477Z,1016.60
2019-03-26T01:25:19.247Z,1016.60
2019-03-26T01:26:19.247Z,1016.58
2019-03-26T01:27:19.227Z,1016.65
2019-03-26T01:28:19.227Z,1016.65
2019-03-26T01:29:19.256Z,1016.65
2019-03-26T01:30:19.206Z,1016.68
2019-03-26T01:31:19.187Z,1016.73
2019-03-26T01:32:19.176Z,1016.77
2019-03-26T01:33:19.166Z,1016.77
2019-03-26T01:34:19.156Z,1016.77
2019-03-26T01:35:19.206Z,1016.76
2019-03-26T01:36:19.136Z,1016.80
2019-03-26T01:37:19.417Z,1016.79
2019-03-26T01:38:19.123Z,1016.78
2019-03-26T01:39:19.116Z,1016.75
2019-03-26T01:40:19.105Z,1016.75
2019-03-26T01:41:19.135Z,1016.74
2019-03-26T01:42:19.076Z,1016.77
2019-03-26T01:43:19.065Z,1016.85
2019-03-26T01:44:19.336Z,1016.80
2019-03-26T01:45:19.047Z,1016.86
2019-03-26T01:46:19.108Z,1016.79
2019-03-26T01:47:19.075Z,1016.78
2019-03-26T01:48:19.015Z,1016.75
2019-03-26T01:49:19.004Z,1016.71
2019-03-26T01:50:18.994Z,1016.73
2019-03-26T01:51:19.262Z,1016.76
2019-03-26T01:52:18.975Z,1016.73
2019-03-26T01:53:20.435Z,1016.74
2019-03-26T01:54:18.954Z,1016.73
2019-03-26T01:55:18.942Z,1016.77
2019-03-26T01:56:18.932Z,1016.70
2019-03-26T01:57:18.938Z,1016.72
2019-03-26T01:58:18.913Z,1016.72
2019-03-26T01:59:18.937Z,1016.73
2019-03-26T02:00:18.883Z,1016.69
2019-03-26T02:01:18.872Z,1016.69
2019-03-26T02:02:18.871Z,1016.65
2019-03-26T02:03:19.180Z,1016.70
2019-03-26T02:04:18.894Z,1016.66
2019-03-26T02:05:18.939Z,1016.68
2019-03-26T02:06:18.842Z,1016.63
2019-03-26T02:07:18.813Z,1016.64
2019-03-26T02:08:18.803Z,1016.62
2019-03-26T02:09:19.081Z,1016.64
2019-03-26T02:10:18.789Z,1016.63
2019-03-26T02:11:18.969Z,1016.66
2019-03-26T02:12:18.767Z,1016.62
2019-03-26T02:13:18.751Z,1016.60
2019-03-26T02:14:18.742Z,1016.63
2019-03-26T02:15:18.730Z,1016.61
2019-03-26T02:16:18.724Z,1016.64
2019-03-26T02:17:18.747Z,1016.58
2019-03-26T02:18:18.701Z,1016.60
2019-03-26T02:19:18.691Z,1016.62
2019-03-26T02:20:18.690Z,1016.63
2019-03-26T02:21:18.950Z,1016.69
2019-03-26T02:22:18.667Z,1016.63
2019-03-26T02:23:18.692Z,1016.63
2019-03-26T02:24:18.638Z,1016.68
2019-03-26T02:25:18.627Z,1016.65
2019-03-26T02:26:18.623Z,1016.70
2019-03-26T02:27:18.608Z,1016.68
2019-03-26T02:28:18.869Z,1016.71
2019-03-26T02:29:18.649Z,1016.71
2019-03-26T02:30:18.571Z,1016.70
2019-03-26T02:31:18.563Z,1016.68
2019-03-26T02:32:18.555Z,1016.69
2019-03-26T02:33:18.551Z,1016.63
2019-03-26T02:34:18.528Z,1016.67
2019-03-26T02:35:19.450Z,1016.68
2019-03-26T02:36:18.509Z,1016.68
2019-03-26T02:37:18.497Z,1016.73
2019-03-26T02:38:18.491Z,1016.74
2019-03-26T02:39:18.487Z,1016.78
2019-03-26T02:40:18.485Z,1016.79
2019-03-26T02:41:18.498Z,1016.74
2019-03-26T02:42:18.727Z,1016.77
2019-03-26T02:43:18.438Z,1016.78
2019-03-26T02:44:18.445Z,1016.74
2019-03-26T02:45:18.417Z,1016.75
2019-03-26T02:46:18.409Z,1016.74
2019-03-26T02:47:18.556Z,1016.78
2019-03-26T02:48:18.389Z,1016.71
2019-03-26T02:49:18.666Z,1016.75
2019-03-26T02:50:18.369Z,1016.75
2019-03-26T02:51:18.363Z,1016.76
2019-03-26T02:52:18.345Z,1016.73
2019-03-26T02:53:18.368Z,1016.78
2019-03-26T02:54:18.327Z,1016.83
2019-03-26T02:55:18.325Z,1016.80
2019-03-26T02:56:18.586Z,1016.83
2019-03-26T02:57:18.412Z,1016.78
2019-03-26T02:58:18.289Z,1016.77
2019-03-26T02:59:18.306Z,1016.77
2019-03-26T03:01:34.949Z,1016.81
2019-03-26T03:02:34.490Z,1016.78
2019-03-26T03:03:34.484Z,1016.77
2019-03-26T03:04:34.534Z,1016.79
2019-03-26T03:05:36.179Z,1016.75
2019-03-26T03:06:34.470Z,1016.73
2019-03-26T03:07:34.439Z,1016.75
2019-03-26T03:08:34.710Z,1016.79
2019-03-26T03:09:34.409Z,1016.76
2019-03-26T03:10:34.447Z,1016.81
2019-03-26T03:11:34.396Z,1016.81
2019-03-26T03:12:34.379Z,1016.80
2019-03-26T03:13:34.377Z,1016.87
2019-03-26T03:14:34.358Z,1016.86
2019-03-26T03:15:34.658Z,1016.84
2019-03-26T03:16:34.379Z,1016.86
2019-03-26T03:17:34.328Z,1016.84
2019-03-26T03:18:34.328Z,1016.83
2019-03-26T03:19:34.329Z,1016.86
2019-03-26T03:20:34.319Z,1016.87
2019-03-26T03:21:34.288Z,1016.85
2019-03-26T03:22:34.976Z,1016.84
2019-03-26T03:23:34.267Z,1016.86
2019-03-26T03:24:34.267Z,1016.89
2019-03-26T03:25:34.247Z,1016.89
2019-03-26T03:26:34.242Z,1016.96
2019-03-26T03:27:34.229Z,1016.99
2019-03-26T03:28:34.399Z,1017.02
2019-03-26T03:29:34.484Z,1017.04
2019-03-26T03:30:34.199Z,1017.03
2019-03-26T03:31:34.184Z,1017.03
2019-03-26T03:32:34.174Z,1017.02
2019-03-26T03:33:34.171Z,1016.98
2019-03-26T03:34:34.208Z,1017.06
2019-03-26T03:35:50.814Z,1017.03
2019-03-26T03:36:35.136Z,1017.02
2019-03-26T03:37:34.134Z,1017.04
2019-03-26T03:38:34.115Z,1017.07
2019-03-26T03:39:34.104Z,1017.03
2019-03-26T03:40:34.145Z,1017.07
2019-03-26T03:41:34.090Z,1017.06
2019-03-26T03:42:34.390Z,1017.08
2019-03-26T03:43:34.055Z,1017.10
2019-03-26T03:44:34.050Z,1017.07
2019-03-26T03:45:34.034Z,1017.05
2019-03-26T03:46:34.066Z,1017.06
2019-03-26T03:47:34.043Z,1017.07
2019-03-26T03:48:34.005Z,1017.05
2019-03-26T03:49:34.273Z,1017.05
2019-03-26T03:50:33.982Z,1017.08
2019-03-26T03:51:33.982Z,1017.05
2019-03-26T03:52:34.001Z,1017.01
2019-03-26T03:53:33.958Z,1017.01
2019-03-26T03:54:33.965Z,1017.00
2019-03-26T03:55:33.932Z,1016.97
2019-03-26T03:56:34.192Z,1016.95
2019-03-26T03:57:33.912Z,1016.99
2019-03-26T03:58:34.212Z,1016.92
2019-03-26T03:59:33.892Z,1016.92
2019-03-26T04:00:33.871Z,1016.95
2019-03-26T04:01:33.869Z,1016.91
2019-03-26T04:02:33.866Z,1016.92
2019-03-26T04:03:34.121Z,1016.93
2019-03-26T04:04:33.868Z,1016.91
2019-03-26T04:05:33.831Z,1016.88
2019-03-26T04:06:33.811Z,1016.83
2019-03-26T04:07:33.821Z,1016.84
2019-03-26T04:08:33.801Z,1016.87
2019-03-26T04:09:33.781Z,1016.90
2019-03-26T04:10:34.089Z,1016.87
2019-03-26T04:11:33.762Z,1016.83
2019-03-26T04:12:33.751Z,1016.88
2019-03-26T04:13:33.749Z,1016.90
2019-03-26T04:14:33.730Z,1016.93
2019-03-26T04:15:35.125Z,1016.94
2019-03-26T04:16:33.775Z,1016.96
2019-03-26T04:17:33.978Z,1016.96
2019-03-26T04:18:33.690Z,1016.91
2019-03-26T04:19:33.689Z,1016.90
2019-03-26T04:20:33.676Z,1016.94
2019-03-26T04:21:33.670Z,1016.90
2019-03-26T04:22:33.694Z,1016.94
2019-03-26T04:23:33.647Z,1016.91
2019-03-26T04:24:33.898Z,1016.93
2019-03-26T04:25:33.614Z,1016.89
2019-03-26T04:26:33.598Z,1016.96
2019-03-26T04:27:33.588Z,1016.89
2019-03-26T04:28:33.614Z,1016.84
2019-03-26T04:29:33.567Z,1016.93
2019-03-26T04:30:33.556Z,1016.97
2019-03-26T04:31:33.546Z,1016.94
2019-03-26T04:32:33.537Z,1016.98
2019-03-26T04:33:33.525Z,1016.98
2019-03-26T04:34:33.585Z,1016.90
2019-03-26T04:35:33.517Z,1016.93
2019-03-26T04:36:33.493Z,1016.96
2019-03-26T04:37:33.764Z,1016.95
2019-03-26T04:38:33.476Z,1016.94
2019-03-26T04:39:33.462Z,1016.97
2019-03-26T04:40:33.497Z,1017.02
2019-03-26T04:41:33.443Z,1017.03
2019-03-26T04:42:33.434Z,1017.00
2019-03-26T04:43:33.421Z,1017.04
2019-03-26T04:44:33.424Z,1017.01
2019-03-26T04:45:33.403Z,1016.97
2019-03-26T04:46:33.423Z,1016.94
2019-03-26T04:47:33.383Z,1016.89
2019-03-26T04:48:33.363Z,1016.93
2019-03-26T04:49:33.712Z,1016.85
2019-03-26T04:50:33.352Z,1016.88
2019-03-26T04:51:33.333Z,1016.88
2019-03-26T04:52:33.382Z,1016.94
2019-03-26T04:53:34.315Z,1016.90
2019-03-26T04:54:33.302Z,1016.86
2019-03-26T04:55:33.303Z,1016.89
2019-03-26T04:56:33.317Z,1016.90
2019-03-26T04:57:33.673Z,1016.91
2019-03-26T04:58:33.301Z,1017.00
2019-03-26T04:59:33.291Z,1016.93
2019-03-26T05:00:33.286Z,1016.94
2019-03-26T05:01:34.152Z,1016.96
2019-03-26T05:02:33.241Z,1016.95
2019-03-26T05:03:34.040Z,1017.00
2019-03-26T05:04:33.230Z,1016.95
2019-03-26T05:05:33.191Z,1016.98
2019-03-26T05:06:38.230Z,1016.94
2019-03-26T05:07:34.450Z,1016.91
2019-03-26T05:08:33.158Z,1016.91
2019-03-26T05:09:33.151Z,1016.96
2019-03-26T05:10:33.429Z,1016.99
2019-03-26T05:11:33.120Z,1016.96
2019-03-26T05:12:33.109Z,1016.98
2019-03-26T05:13:33.099Z,1017.00
2019-03-26T05:14:33.372Z,1016.98
2019-03-26T05:15:33.090Z,1017.02
2019-03-26T05:16:33.108Z,1016.99
2019-03-26T05:17:33.058Z,1017.03
2019-03-26T05:18:33.052Z,1016.98
2019-03-26T05:19:33.038Z,1017.00
2019-03-26T05:20:33.026Z,1017.01
2019-03-26T05:21:33.317Z,1017.00
2019-03-26T05:22:33.046Z,1016.95
2019-03-26T05:23:34.105Z,1016.98
2019-03-26T05:24:32.989Z,1016.96
2019-03-26T05:25:32.997Z,1016.94
2019-03-26T05:26:32.963Z,1016.93
2019-03-26T05:27:44.911Z,1016.90
2019-03-26T05:28:34.017Z,1016.89
2019-03-26T05:29:32.927Z,1016.94
2019-03-26T05:30:33.289Z,1016.92
2019-03-26T05:31:32.915Z,1016.91
2019-03-26T05:32:33.478Z,1016.90
2019-03-26T05:33:32.895Z,1016.96
2019-03-26T05:34:33.253Z,1016.94
2019-03-26T05:35:32.865Z,1016.95
2019-03-26T05:36:32.863Z,1016.93
2019-03-26T05:37:32.855Z,1016.96
2019-03-26T05:38:32.875Z,1016.95
2019-03-26T05:39:32.824Z,1017.00
2019-03-26T05:40:32.855Z,1016.98
2019-03-26T05:41:33.092Z,1017.00
2019-03-26T05:42:32.794Z,1017.03
2019-03-26T05:43:32.782Z,1017.03
2019-03-26T05:44:32.833Z,1017.02
2019-03-26T05:45:32.771Z,1017.00
2019-03-26T05:46:32.799Z,1016.98
2019-03-26T05:47:32.743Z,1016.94
2019-03-26T05:48:33.022Z,1016.94
2019-03-26T05:49:32.725Z,1016.95
2019-03-26T05:50:32.724Z,1016.89
2019-03-26T05:51:32.702Z,1016.95
2019-03-26T05:52:32.734Z,1016.97
2019-03-26T05:53:32.681Z,1016.91
2019-03-26T05:54:32.882Z,1016.99
2019-03-26T05:55:32.974Z,1016.93
2019-03-26T05:56:32.881Z,1016.95
2019-03-26T05:57:32.782Z,1016.99
2019-03-26T05:58:32.792Z,1017.02
2019-03-26T05:59:32.831Z,1017.00
2019-03-26T06:00:32.620Z,1017.01
2019-03-26T06:01:32.600Z,1017.04
2019-03-26T06:02:32.582Z,1016.99
2019-03-26T06:03:32.591Z,1017.02
2019-03-26T06:04:32.630Z,1016.98
2019-03-26T06:05:32.552Z,1016.96
2019-03-26T06:06:32.540Z,1016.91
2019-03-26T06:07:32.831Z,1016.92
2019-03-26T06:08:32.830Z,1016.94
2019-03-26T06:09:32.517Z,1016.93
2019-03-26T06:10:32.561Z,1016.94
2019-03-26T06:11:32.508Z,1016.87
2019-03-26T06:12:32.479Z,1016.89
2019-03-26T06:13:32.520Z,1016.92
2019-03-26T06:14:32.480Z,1016.90
2019-03-26T06:15:32.460Z,1016.88
2019-03-26T06:16:38.357Z,1016.84
2019-03-26T06:17:33.420Z,1016.88
2019-03-26T06:18:32.429Z,1016.82
2019-03-26T06:19:32.788Z,1016.81
2019-03-26T06:20:32.578Z,1016.82
2019-03-26T06:21:32.553Z,1016.80
2019-03-26T06:22:32.488Z,1016.79
2019-03-26T06:23:32.368Z,1016.78
2019-03-26T06:24:32.557Z,1016.81
2019-03-26T06:25:32.338Z,1016.83
2019-03-26T06:26:32.351Z,1016.80
2019-03-26T06:27:32.347Z,1016.83
2019-03-26T06:28:32.346Z,1016.88
2019-03-26T06:29:32.529Z,1016.92
2019-03-26T06:30:32.416Z,1016.91
2019-03-26T06:31:32.756Z,1016.91
2019-03-26T06:32:32.274Z,1016.98
2019-03-26T06:33:32.256Z,1017.01
2019-03-26T06:34:32.276Z,1016.97
2019-03-26T06:35:32.235Z,1016.96
2019-03-26T06:36:32.225Z,1016.91
2019-03-26T06:37:32.214Z,1016.92
2019-03-26T06:38:33.723Z,1016.88
2019-03-26T06:39:32.196Z,1016.89
2019-03-26T06:40:32.233Z,1016.89
2019-03-26T06:41:32.294Z,1016.90
2019-03-26T06:42:32.184Z,1016.84
2019-03-26T06:43:32.286Z,1016.91
2019-03-26T06:44:32.158Z,1016.98
2019-03-26T06:45:32.617Z,1016.91
2019-03-26T06:46:32.152Z,1016.93
2019-03-26T06:47:32.105Z,1016.88
2019-03-26T06:48:33.354Z,1016.84
2019-03-26T06:49:32.144Z,1016.87
2019-03-26T06:50:32.584Z,1016.95
2019-03-26T06:51:32.063Z,1016.92
2019-03-26T06:52:32.944Z,1016.98
2019-03-26T06:53:32.771Z,1016.96
2019-03-26T06:54:32.042Z,1017.01
2019-03-26T06:55:32.019Z,1017.04
2019-03-26T06:56:32.197Z,1017.04
2019-03-26T06:57:35.931Z,1017.05
2019-03-26T06:58:32.086Z,1017.04
2019-03-26T06:59:32.284Z,1017.04
2019-03-26T07:00:32.012Z,1017.06
2019-03-26T07:01:31.962Z,1017.07
2019-03-26T07:02:31.951Z,1017.11
2019-03-26T07:03:31.988Z,1017.04
2019-03-26T07:04:31.975Z,1017.06
2019-03-26T07:05:31.943Z,1017.04
2019-03-26T07:06:32.401Z,1017.01
2019-03-26T07:07:32.192Z,1017.05
2019-03-26T07:08:31.908Z,1017.04
2019-03-26T07:09:32.242Z,1017.03
2019-03-26T07:10:31.929Z,1017.02
2019-03-26T07:11:32.090Z,1017.04
2019-03-26T07:12:32.922Z,1017.02
2019-03-26T07:13:32.238Z,1017.10
2019-03-26T07:14:31.839Z,1017.10
2019-03-26T07:15:31.821Z,1017.07
2019-03-26T07:16:32.100Z,1017.11
2019-03-26T07:17:31.839Z,1017.17
2019-03-26T07:18:31.800Z,1017.16
2019-03-26T07:19:31.870Z,1017.20
2019-03-26T07:20:31.807Z,1017.22
2019-03-26T07:21:31.756Z,1017.24
2019-03-26T07:22:32.172Z,1017.24
2019-03-26T07:23:31.783Z,1017.24
2019-03-26T07:24:32.502Z,1017.28
2019-03-26T07:25:31.756Z,1017.31
2019-03-26T07:26:33.218Z,1017.31
2019-03-26T07:27:31.678Z,1017.28
2019-03-26T07:28:31.783Z,1017.31
2019-03-26T07:29:32.017Z,1017.35
2019-03-26T07:30:31.657Z,1017.34
2019-03-26T07:31:31.646Z,1017.37
2019-03-26T07:32:31.781Z,1017.33
2019-03-26T07:33:31.917Z,1017.33
2019-03-26T07:34:31.687Z,1017.34
2019-03-26T07:35:31.627Z,1017.36
2019-03-26T07:36:31.636Z,1017.33
2019-03-26T07:37:44.111Z,1017.33
2019-03-26T07:38:32.576Z,1017.29
2019-03-26T07:39:32.404Z,1017.30
2019-03-26T07:40:31.663Z,1017.33
2019-03-26T07:41:31.545Z,1017.33
2019-03-26T07:42:31.566Z,1017.29
2019-03-26T07:43:31.518Z,1017.34
2019-03-26T07:44:31.545Z,1017.36
2019-03-26T07:45:31.968Z,1017.31
2019-03-26T07:46:31.577Z,1017.31
2019-03-26T07:47:31.680Z,1017.38
2019-03-26T07:48:31.557Z,1017.38
2019-03-26T07:49:31.507Z,1017.40
2019-03-26T07:50:31.445Z,1017.37
2019-03-26T07:51:31.498Z,1017.39
2019-03-26T07:52:31.761Z,1017.41
2019-03-26T07:53:31.426Z,1017.50
2019-03-26T07:54:32.730Z,1017.49
2019-03-26T07:55:31.865Z,1017.49
2019-03-26T07:56:32.359Z,1017.49
2019-03-26T07:57:32.763Z,1017.58
2019-03-26T07:58:33.218Z,1017.46
2019-03-26T07:59:35.642Z,1017.53
2019-03-26T08:00:31.353Z,1017.55
2019-03-26T08:01:31.424Z,1017.60
2019-03-26T08:02:31.332Z,1017.60
2019-03-26T08:03:33.100Z,1017.65
2019-03-26T08:04:31.372Z,1017.62
2019-03-26T08:05:31.433Z,1017.62
2019-03-26T08:06:32.053Z,1017.53
2019-03-26T08:07:31.281Z,1017.62
2019-03-26T08:08:31.841Z,1017.62
2019-03-26T08:09:31.796Z,1017.66
2019-03-26T08:10:31.769Z,1017.59
2019-03-26T08:11:31.240Z,1017.61
2019-03-26T08:12:32.821Z,1017.61
2019-03-26T08:13:31.268Z,1017.60
2019-03-26T08:14:31.344Z,1017.53
2019-03-26T08:15:31.222Z,1017.53
2019-03-26T08:16:31.229Z,1017.55
2019-03-26T08:17:31.613Z,1017.53
2019-03-26T08:18:31.155Z,1017.51
2019-03-26T08:19:31.191Z,1017.50
2019-03-26T08:20:31.133Z,1017.53
2019-03-26T08:21:31.130Z,1017.53
2019-03-26T08:22:31.140Z,1017.55
2019-03-26T08:23:31.224Z,1017.50
2019-03-26T08:24:31.970Z,1017.57
2019-03-26T08:25:33.750Z,1017.49
2019-03-26T08:26:31.069Z,1017.41
2019-03-26T08:27:31.059Z,1017.41
2019-03-26T08:28:32.939Z,1017.46
2019-03-26T08:29:31.988Z,1017.35
2019-03-26T08:30:31.779Z,1017.29
2019-03-26T08:31:31.029Z,1017.30
2019-03-26T08:32:31.976Z,1017.29
2019-03-26T08:33:31.042Z,1017.25
2019-03-26T08:34:31.008Z,1017.28
2019-03-26T08:35:31.517Z,1017.28
2019-03-26T08:36:31.628Z,1017.30
2019-03-26T08:37:32.716Z,1017.30
2019-03-26T08:38:33.355Z,1017.29
2019-03-26T08:39:32.425Z,1017.27
2019-03-26T08:40:31.438Z,1017.33
2019-03-26T08:41:31.494Z,1017.15
2019-03-26T08:42:30.900Z,1017.20
2019-03-26T08:43:31.548Z,1017.34
2019-03-26T08:44:31.385Z,1017.17
2019-03-26T08:45:30.911Z,1017.10
2019-03-26T08:46:31.453Z,1017.08
2019-03-26T08:47:30.842Z,1017.08
2019-03-26T08:48:30.850Z,1017.15
2019-03-26T08:49:31.144Z,1017.12
2019-03-26T08:50:31.128Z,1017.17
2019-03-26T08:51:31.668Z,1017.16
2019-03-26T08:52:31.065Z,1017.12
2019-03-26T08:53:30.940Z,1017.18
2019-03-26T08:54:31.642Z,1017.12
2019-03-26T08:55:32.247Z,1017.10
2019-03-26T08:56:32.478Z,1017.12
2019-03-26T08:57:31.038Z,1017.19
2019-03-26T08:58:31.516Z,1017.18
2019-03-26T08:59:31.183Z,1017.18
2019-03-26T09:00:32.053Z,1017.08
2019-03-26T09:01:30.947Z,1017.14
2019-03-26T09:02:30.887Z,1017.03
2019-03-26T09:03:31.186Z,1017.10
2019-03-26T09:04:31.667Z,1017.15
2019-03-26T09:05:31.087Z,1017.19
2019-03-26T09:06:30.779Z,1017.20
2019-03-26T09:07:31.144Z,1017.14
2019-03-26T09:08:30.627Z,1017.25
2019-03-26T09:09:30.607Z,1017.30
2019-03-26T09:10:30.625Z,1017.24
2019-03-26T09:11:30.578Z,1017.24
2019-03-26T09:12:30.573Z,1017.23
2019-03-26T09:13:30.655Z,1017.25
2019-03-26T09:14:30.776Z,1017.21
2019-03-26T09:15:30.986Z,1017.22
2019-03-26T09:16:30.566Z,1017.18
2019-03-26T09:17:30.520Z,1017.22
2019-03-26T09:18:30.525Z,1017.13
2019-03-26T09:19:30.492Z,1017.19
2019-03-26T09:20:30.496Z,1017.10
2019-03-26T09:21:32.679Z,1017.09
2019-03-26T09:22:30.536Z,1017.23
2019-03-26T09:23:30.456Z,1017.23
2019-03-26T09:24:30.448Z,1017.20
2019-03-26T09:25:30.431Z,1017.18
2019-03-26T09:26:30.424Z,1017.22
2019-03-26T09:27:30.404Z,1017.12
2019-03-26T09:28:31.728Z,1017.16
2019-03-26T09:29:30.393Z,1017.16
2019-03-26T09:30:30.434Z,1017.21
2019-03-26T09:31:31.064Z,1017.14
2019-03-26T09:32:30.363Z,1017.26
2019-03-26T09:33:30.347Z,1017.18
2019-03-26T09:34:30.385Z,1017.13
2019-03-26T09:35:31.088Z,1017.26
2019-03-26T09:36:30.378Z,1017.12
2019-03-26T09:37:30.304Z,1017.20
2019-03-26T09:38:38.788Z,1017.19
2019-03-26T09:39:31.347Z,1017.12
2019-03-26T09:40:31.103Z,1017.13
2019-03-26T09:41:30.469Z,1017.11
2019-03-26T09:42:30.329Z,1017.15
2019-03-26T09:43:30.253Z,1017.14
2019-03-26T09:44:30.243Z,1017.12
2019-03-26T09:45:30.274Z,1017.07
2019-03-26T09:46:31.019Z,1017.06
2019-03-26T09:47:30.460Z,1016.99
2019-03-26T09:48:30.455Z,1017.05
2019-03-26T09:49:30.399Z,1017.06
2019-03-26T09:50:30.935Z,1016.99
2019-03-26T09:51:30.843Z,1017.07
2019-03-26T09:52:30.155Z,1017.02
2019-03-26T09:53:30.141Z,1017.02
2019-03-26T09:54:30.243Z,1017.05
2019-03-26T09:55:30.132Z,1017.06
2019-03-26T09:56:32.155Z,1017.05
2019-03-26T09:57:30.129Z,1017.05
2019-03-26T09:58:30.953Z,1017.04
2019-03-26T09:59:30.065Z,1017.04
2019-03-26T10:00:30.607Z,1017.00
2019-03-26T10:01:30.042Z,1017.06
2019-03-26T10:02:31.690Z,1016.95
2019-03-26T10:03:31.241Z,1016.92
2019-03-26T10:04:30.564Z,1016.99
2019-03-26T10:05:29.999Z,1016.91
2019-03-26T10:06:29.991Z,1016.97
2019-03-26T10:07:29.991Z,1016.99
2019-03-26T10:08:30.006Z,1016.97
2019-03-26T10:09:30.143Z,1016.99
2019-03-26T10:10:29.980Z,1017.00
2019-03-26T10:11:29.937Z,1016.97
2019-03-26T10:12:30.358Z,1016.94
2019-03-26T10:13:29.909Z,1016.94
2019-03-26T10:14:29.923Z,1016.96
2019-03-26T10:15:30.120Z,1016.95
2019-03-26T10:16:29.990Z,1017.00
2019-03-26T10:17:29.911Z,1016.91
2019-03-26T10:18:29.878Z,1016.83
2019-03-26T10:19:30.718Z,1016.85
2019-03-26T10:20:29.891Z,1016.76
2019-03-26T10:21:30.078Z,1016.74
2019-03-26T10:22:30.080Z,1016.76
2019-03-26T10:23:29.855Z,1016.75
2019-03-26T10:24:29.842Z,1016.77
2019-03-26T10:25:29.846Z,1016.70
2019-03-26T10:26:30.158Z,1016.77
2019-03-26T10:27:29.796Z,1016.64
2019-03-26T10:28:29.816Z,1016.66
2019-03-26T10:29:31.240Z,1016.63
2019-03-26T10:30:30.071Z,1016.65
2019-03-26T10:31:29.753Z,1016.62
2019-03-26T10:32:30.164Z,1016.67
2019-03-26T10:33:29.822Z,1016.66
2019-03-26T10:34:29.785Z,1016.66
2019-03-26T10:35:30.569Z,1016.61
2019-03-26T10:36:45.084Z,1016.62
2019-03-26T10:37:32.267Z,1016.65
2019-03-26T10:38:29.832Z,1016.68
2019-03-26T10:39:34.857Z,1016.63
2019-03-26T10:40:32.573Z,1016.66
2019-03-26T10:41:31.497Z,1016.71
2019-03-26T10:42:29.631Z,1016.66
2019-03-26T10:43:31.908Z,1016.67
2019-03-26T10:44:29.596Z,1016.63
2019-03-26T10:45:29.614Z,1016.63
2019-03-26T10:46:29.968Z,1016.60
2019-03-26T10:47:29.675Z,1016.66
2019-03-26T10:48:31.876Z,1016.67
2019-03-26T10:49:29.558Z,1016.64
2019-03-26T10:50:29.576Z,1016.57
2019-03-26T10:51:29.656Z,1016.61
2019-03-26T10:52:34.010Z,1016.61
2019-03-26T10:53:31.757Z,1016.58
2019-03-26T10:54:29.494Z,1016.58
2019-03-26T10:55:29.475Z,1016.53
2019-03-26T10:56:32.438Z,1016.61
2019-03-26T10:57:29.569Z,1016.58
2019-03-26T10:58:29.444Z,1016.58
2019-03-26T10:59:29.446Z,1016.55
2019-03-26T11:00:29.751Z,1016.65
2019-03-26T11:01:29.916Z,1016.62
2019-03-26T11:02:29.528Z,1016.61
2019-03-26T11:03:29.484Z,1016.71
2019-03-26T11:04:29.386Z,1016.67
2019-03-26T11:05:30.478Z,1016.68
2019-03-26T11:06:29.347Z,1016.60
2019-03-26T11:07:30.914Z,1016.73
2019-03-26T11:08:32.382Z,1016.64
2019-03-26T11:09:31.900Z,1016.61
2019-03-26T11:10:29.304Z,1016.71
2019-03-26T11:11:29.866Z,1016.68
2019-03-26T11:12:30.618Z,1016.68
2019-03-26T11:13:29.822Z,1016.68
2019-03-26T11:14:31.794Z,1016.72
2019-03-26T11:15:29.521Z,1016.68
2019-03-26T11:16:29.232Z,1016.72
2019-03-26T11:17:29.250Z,1016.70
2019-03-26T11:18:30.585Z,1016.74
2019-03-26T11:19:30.588Z,1016.67
2019-03-26T11:20:29.193Z,1016.67
2019-03-26T11:21:29.321Z,1016.71
2019-03-26T11:22:29.191Z,1016.75
2019-03-26T11:23:29.179Z,1016.74
2019-03-26T11:24:29.164Z,1016.79
2019-03-26T11:25:29.179Z,1016.75
2019-03-26T11:26:29.470Z,1016.78
2019-03-26T11:27:30.592Z,1016.71
2019-03-26T11:28:30.361Z,1016.76
2019-03-26T11:29:29.349Z,1016.75
2019-03-26T11:30:30.406Z,1016.82
2019-03-26T11:31:30.260Z,1016.78
2019-03-26T11:32:29.308Z,1016.77
2019-03-26T11:33:29.280Z,1016.82
2019-03-26T11:34:29.379Z,1016.84
2019-03-26T11:35:29.048Z,1016.81
2019-03-26T11:36:29.126Z,1016.85
2019-03-26T11:37:29.030Z,1016.85
2019-03-26T11:38:29.015Z,1016.87
2019-03-26T11:39:33.017Z,1016.86
2019-03-26T11:40:28.992Z,1016.79
2019-03-26T11:41:29.548Z,1016.81
2019-03-26T11:42:30.328Z,1016.81
2019-03-26T11:43:29.489Z,1016.78
2019-03-26T11:44:29.446Z,1016.78
2019-03-26T11:45:28.987Z,1016.81
2019-03-26T11:46:28.977Z,1016.78
2019-03-26T11:47:28.929Z,1016.78
2019-03-26T11:48:29.707Z,1016.73
2019-03-26T11:49:28.896Z,1016.73
2019-03-26T11:50:30.105Z,1016.78
2019-03-26T11:51:29.446Z,1016.77
2019-03-26T11:52:29.500Z,1016.79
2019-03-26T11:53:29.337Z,1016.78
2019-03-26T11:54:29.075Z,1016.78
2019-03-26T11:55:29.208Z,1016.82
2019-03-26T11:56:28.818Z,1016.81
2019-03-26T11:57:28.935Z,1016.81
2019-03-26T11:58:30.943Z,1016.83
2019-03-26T11:59:28.784Z,1016.83
2019-03-26T12:00:29.789Z,1016.81
2019-03-26T12:01:29.767Z,1016.86
2019-03-26T12:02:29.790Z,1016.83
2019-03-26T12:03:30.798Z,1016.85
2019-03-26T12:04:30.510Z,1016.84
2019-03-26T12:05:32.731Z,1016.83
2019-03-26T12:06:30.376Z,1016.83